createdAt,value
2023-01-13T00:01:00.248Z,95.56
2023-01-13T00:03:27.344Z,95.20
2023-01-13T00:05:54.406Z,95.65
2023-01-13T00:08:21.475Z,96.12
2023-01-13T00:10:48.617Z,96.31
2023-01-13T00:13:15.742Z,95.76
2023-01-13T00:15:43.144Z,95.18
2023-01-13T00:18:10.318Z,95.07
2023-01-13T00:20:37.442Z,95.39
2023-01-13T00:23:04.536Z,95.66
2023-01-13T00:25:31.588Z,96.39
2023-01-13T00:27:58.640Z,95.42
2023-01-13T00:30:25.746Z,95.73
2023-01-13T00:32:54.004Z,95.48
2023-01-13T00:35:21.062Z,96.13
2023-01-13T00:37:48.109Z,96.50
2023-01-13T00:40:15.181Z,96.15
2023-01-13T00:43:00.667Z,96.77
2023-01-13T00:45:27.726Z,96.33
2023-01-13T00:47:54.793Z,96.26
2023-01-13T01:02:28.968Z,96.31
2023-01-13T01:04:56.043Z,96.19
2023-01-13T01:07:23.172Z,96.88
2023-01-13T01:09:50.225Z,97.30
2023-01-13T01:12:17.275Z,96.80
2023-01-13T01:14:44.385Z,96.07
2023-01-13T01:17:11.464Z,96.47
2023-01-13T01:19:38.787Z,95.95
2023-01-13T01:22:06.541Z,95.03
2023-01-13T01:24:33.658Z,94.90
2023-01-13T01:27:00.822Z,95.91
2023-01-13T01:29:27.894Z,95.31
2023-01-13T01:31:57.745Z,95.65
2023-01-13T01:34:24.926Z,95.67
2023-01-13T01:36:52.019Z,95.66
2023-01-13T01:39:19.164Z,95.28
2023-01-13T01:42:06.282Z,94.82
2023-01-13T01:44:42.284Z,94.90
2023-01-13T01:47:12.542Z,95.19
2023-01-13T01:49:41.116Z,94.40
2023-01-13T01:52:14.919Z,94.29
2023-01-13T01:54:54.926Z,95.02
2023-01-13T01:57:32.732Z,94.58
2023-01-13T02:00:01.073Z,95.52
2023-01-13T02:02:30.513Z,95.94
2023-01-13T02:04:59.129Z,95.84
2023-01-13T02:07:30.577Z,95.44
2023-01-13T02:10:01.097Z,95.94
2023-01-13T02:12:32.333Z,95.94
2023-01-13T02:15:09.860Z,96.02
2023-01-13T02:17:55.480Z,95.09
2023-01-13T02:20:44.622Z,95.70
2023-01-13T02:24:05.636Z,96.04
2023-01-13T02:27:06.586Z,96.57
2023-01-13T02:30:07.885Z,96.98
2023-01-13T02:32:51.593Z,96.17
2023-01-13T02:35:33.489Z,95.89
2023-01-13T02:38:02.198Z,96.49
2023-01-13T02:40:39.196Z,97.24
2023-01-13T02:43:46.578Z,97.30
2023-01-13T02:46:22.502Z,98.02
2023-01-13T02:48:52.787Z,97.92
2023-01-13T02:51:25.216Z,98.41
2023-01-13T02:53:59.661Z,97.98
2023-01-13T02:56:27.894Z,98.54
2023-01-13T02:58:57.622Z,98.59
2023-01-13T03:01:25.436Z,99.35
2023-01-13T03:03:52.686Z,98.29
2023-01-13T03:06:39.493Z,98.37
2023-01-13T03:09:22.383Z,98.07
2023-01-13T03:12:17.816Z,98.28
2023-01-13T03:14:58.516Z,98.64
2023-01-13T03:17:41.620Z,99.30
2023-01-13T03:20:18.128Z,98.92
2023-01-13T03:22:55.525Z,98.44
2023-01-13T03:25:40.562Z,98.55
2023-01-13T03:28:23.362Z,99.05
2023-01-13T03:30:55.788Z,98.35
2023-01-13T03:33:31.376Z,98.76
2023-01-13T03:36:05.632Z,99.18
2023-01-13T03:38:40.971Z,98.91
2023-01-13T03:41:21.581Z,98.57
2023-01-13T03:44:24.256Z,99.12
2023-01-13T03:47:04.065Z,98.70
2023-01-13T03:49:41.378Z,98.76
2023-01-13T03:52:13.534Z,98.95
2023-01-13T03:54:47.959Z,99.06
2023-01-13T03:57:18.804Z,99.46
2023-01-13T03:59:50.648Z,99.28
2023-01-13T04:02:51.757Z,99.43
2023-01-13T04:05:19.300Z,99.82
2023-01-13T04:07:55.668Z,99.44
2023-01-13T04:10:31.344Z,99.67
2023-01-13T04:13:05.130Z,100.00
2023-01-13T04:15:34.894Z,100.00
2023-01-13T04:18:21.833Z,100.00
2023-01-13T04:20:51.147Z,100.00
2023-01-13T04:23:19.120Z,100.00
2023-01-13T04:25:47.033Z,100.00
2023-01-13T04:28:15.115Z,99.87
2023-01-13T04:30:42.924Z,100.00
2023-01-13T04:33:10.447Z,100.00
2023-01-13T04:35:38.067Z,100.00
2023-01-13T04:38:11.531Z,100.00
2023-01-13T04:40:39.585Z,100.00
2023-01-13T04:43:06.719Z,100.00
2023-01-13T04:45:34.638Z,99.96
2023-01-13T04:48:01.861Z,100.00
2023-01-13T04:50:29.023Z,100.00
2023-01-13T04:52:56.568Z,100.00
2023-01-13T04:55:25.958Z,100.00
2023-01-13T04:57:53.661Z,100.00
2023-01-13T05:00:22.812Z,100.00
2023-01-13T05:02:51.273Z,100.00
2023-01-13T05:05:18.620Z,100.00
2023-01-13T05:07:46.067Z,100.00
2023-01-13T05:10:13.227Z,100.00
2023-01-13T05:12:59.716Z,100.00
2023-01-13T05:15:45.725Z,100.00
2023-01-13T05:18:13.072Z,100.00
2023-01-13T05:20:40.201Z,100.00
2023-01-13T05:23:26.219Z,100.00
2023-01-13T05:25:53.365Z,100.00
2023-01-13T05:28:20.472Z,100.00
2023-01-13T05:30:49.415Z,100.00
2023-01-13T05:33:20.250Z,100.00
2023-01-13T05:35:47.873Z,100.00
2023-01-13T05:38:15.635Z,100.00
2023-01-13T05:41:08.959Z,100.00
2023-01-13T05:43:36.669Z,100.00
2023-01-13T05:46:07.274Z,100.00
2023-01-13T05:48:39.732Z,100.00
2023-01-13T05:51:08.567Z,100.00
2023-01-13T05:53:35.678Z,100.00
2023-01-13T05:56:07.456Z,100.00
2023-01-13T05:58:34.871Z,100.00
2023-01-13T06:01:07.500Z,100.00
2023-01-13T06:03:34.768Z,100.00
2023-01-13T06:06:03.901Z,100.00
2023-01-13T06:08:32.085Z,100.00
2023-01-13T06:10:59.298Z,100.00
2023-01-13T06:13:26.592Z,100.00
2023-01-13T06:15:58.268Z,100.00
2023-01-13T06:18:26.335Z,100.00
2023-01-13T06:20:53.576Z,100.00
2023-01-13T06:23:20.672Z,100.00
2023-01-13T06:25:56.684Z,99.78
2023-01-13T06:28:24.112Z,99.79
2023-01-13T06:30:55.982Z,99.93
2023-01-13T06:33:30.176Z,100.00
2023-01-13T06:36:01.716Z,99.89
2023-01-13T06:38:33.751Z,100.00
2023-01-13T06:41:00.858Z,100.00
2023-01-13T06:43:27.986Z,100.00
2023-01-13T06:45:56.415Z,99.90
2023-01-13T06:48:27.829Z,100.00
2023-01-13T06:50:54.964Z,99.78
2023-01-13T06:53:22.032Z,99.81
2023-01-13T06:55:49.147Z,99.72
2023-01-13T06:58:16.587Z,99.70
2023-01-13T07:00:43.853Z,100.00
2023-01-13T07:03:13.401Z,100.00
2023-01-13T07:05:42.311Z,100.00
2023-01-13T07:08:09.992Z,99.81
2023-01-13T07:10:37.716Z,99.79
2023-01-13T07:13:24.605Z,99.61
2023-01-13T07:16:02.442Z,100.00
2023-01-13T07:18:32.120Z,100.00
2023-01-13T07:21:04.778Z,99.65
2023-01-13T07:23:34.535Z,99.42
2023-01-13T07:26:02.183Z,98.97
2023-01-13T07:28:30.610Z,98.81
2023-01-13T07:30:58.492Z,98.97
2023-01-13T07:33:25.582Z,99.25
2023-01-13T07:35:57.852Z,99.01
2023-01-13T07:38:25.562Z,99.12
2023-01-13T07:40:52.775Z,98.63
2023-01-13T07:43:32.201Z,98.61
2023-01-13T07:46:04.931Z,97.64
2023-01-13T07:48:34.245Z,97.28
2023-01-13T07:51:03.212Z,96.15
2023-01-13T07:53:30.413Z,95.79
2023-01-13T07:55:59.157Z,96.94
2023-01-13T07:58:26.804Z,97.32
2023-01-13T08:00:54.784Z,96.13
2023-01-13T08:03:23.035Z,95.51
2023-01-13T08:05:50.531Z,95.77
2023-01-13T08:08:17.726Z,95.99
2023-01-13T08:10:45.168Z,95.49
2023-01-13T08:13:18.141Z,95.47
2023-01-13T08:15:47.998Z,95.04
2023-01-13T08:18:16.116Z,94.87
2023-01-13T08:20:46.935Z,94.98
2023-01-13T08:23:14.426Z,94.55
2023-01-13T08:25:41.541Z,93.70
2023-01-13T08:28:08.782Z,93.74
2023-01-13T08:30:35.957Z,93.15
2023-01-13T08:33:07.711Z,92.20
2023-01-13T08:35:39.045Z,93.61
2023-01-13T08:38:06.473Z,93.44
2023-01-13T08:40:33.639Z,92.52
2023-01-13T08:43:01.377Z,93.18
2023-01-13T08:45:28.449Z,93.42
2023-01-13T08:47:55.600Z,92.55
2023-01-13T08:50:22.767Z,93.06
2023-01-13T08:52:49.862Z,93.61
2023-01-13T08:55:17.211Z,91.91
2023-01-13T08:57:44.385Z,90.45
2023-01-13T09:00:13.115Z,89.97
2023-01-13T09:02:40.623Z,88.85
2023-01-13T09:05:08.413Z,90.82
2023-01-13T09:07:37.957Z,88.50
2023-01-13T09:10:07.355Z,88.16
2023-01-13T09:12:53.283Z,87.78
2023-01-13T09:15:21.581Z,86.88
2023-01-13T09:17:48.752Z,85.56
2023-01-13T09:20:16.132Z,85.19
2023-01-13T09:22:43.277Z,84.68
2023-01-13T09:25:10.552Z,84.37
2023-01-13T09:27:37.678Z,85.68
2023-01-13T09:30:06.162Z,85.73
2023-01-13T09:32:33.220Z,85.19
2023-01-13T09:35:00.459Z,86.07
2023-01-13T09:37:28.781Z,83.98
2023-01-13T09:39:56.399Z,83.47
2023-01-13T09:42:52.355Z,83.00
2023-01-13T09:45:23.342Z,81.43
2023-01-13T09:48:12.131Z,81.67
2023-01-13T09:50:58.590Z,81.12
2023-01-13T09:53:29.781Z,79.87
2023-01-13T09:55:56.946Z,78.85
2023-01-13T09:58:24.945Z,79.19
2023-01-13T10:01:20.614Z,78.54
2023-01-13T10:03:49.386Z,76.83
2023-01-13T10:06:16.608Z,73.83
2023-01-13T10:08:45.706Z,73.32
2023-01-13T10:11:38.408Z,71.91
2023-01-13T10:14:27.259Z,71.06
2023-01-13T10:17:17.880Z,71.97
2023-01-13T10:19:51.423Z,71.74
2023-01-13T10:22:37.672Z,72.55
2023-01-13T10:25:20.933Z,69.54
2023-01-13T10:27:50.732Z,69.12
2023-01-13T10:30:31.466Z,70.27
2023-01-13T10:33:01.127Z,69.28
2023-01-13T10:36:05.548Z,68.81
2023-01-13T10:38:35.471Z,69.18
2023-01-13T10:41:06.691Z,69.24
2023-01-13T10:43:33.753Z,69.00
2023-01-13T10:46:11.675Z,67.97
2023-01-13T10:48:41.094Z,67.58
2023-01-13T10:51:14.006Z,69.85
2023-01-13T10:53:50.198Z,68.74
2023-01-13T10:56:19.949Z,66.34
2023-01-13T10:58:47.105Z,66.65
2023-01-13T11:01:27.441Z,65.42
2023-01-13T11:03:55.300Z,64.98
2023-01-13T11:06:24.072Z,65.10
2023-01-13T11:08:55.153Z,62.50
2023-01-13T11:11:43.954Z,61.03
2023-01-13T11:14:33.427Z,62.37
2023-01-13T11:17:10.704Z,60.49
2023-01-13T11:19:43.419Z,61.44
2023-01-13T11:22:22.283Z,61.34
2023-01-13T11:25:01.503Z,61.71
2023-01-13T11:27:42.591Z,63.37
2023-01-13T11:30:32.728Z,64.54
2023-01-13T11:33:06.248Z,65.29
2023-01-13T11:35:40.553Z,66.12
2023-01-13T11:38:40.429Z,64.56
2023-01-13T11:41:41.595Z,64.61
2023-01-13T11:44:29.565Z,62.86
2023-01-13T11:46:56.860Z,59.83
2023-01-13T11:49:28.408Z,58.57
2023-01-13T11:52:16.448Z,60.15
2023-01-13T11:55:02.374Z,60.37
2023-01-13T11:57:35.485Z,59.93
2023-01-13T12:00:21.140Z,61.86
2023-01-13T12:02:58.427Z,63.63
2023-01-13T12:05:39.829Z,63.26
2023-01-13T12:08:26.048Z,63.99
2023-01-13T12:11:18.777Z,62.97
2023-01-13T12:14:27.221Z,64.16
2023-01-13T12:16:54.480Z,62.96
2023-01-13T12:19:30.831Z,63.27
2023-01-13T12:22:20.494Z,63.67
2023-01-13T12:25:12.116Z,64.23
2023-01-13T12:27:47.828Z,63.16
2023-01-13T12:30:14.887Z,63.15
2023-01-13T12:32:42.378Z,64.28
2023-01-13T12:35:21.354Z,65.14
2023-01-13T12:38:01.613Z,65.58
2023-01-13T12:40:38.623Z,65.85
2023-01-13T12:43:40.847Z,65.22
2023-01-13T12:46:21.055Z,65.38
2023-01-13T12:48:57.467Z,65.18
2023-01-13T12:51:36.637Z,63.52
2023-01-13T12:54:32.772Z,65.55
2023-01-13T12:57:00.434Z,64.38
2023-01-13T12:59:27.448Z,64.94
2023-01-13T13:02:13.066Z,64.12
2023-01-13T13:04:43.011Z,65.44
2023-01-13T13:07:17.033Z,66.61
2023-01-13T13:09:50.799Z,66.85
2023-01-13T13:13:01.585Z,67.70
2023-01-13T13:15:30.686Z,68.41
2023-01-13T13:18:28.254Z,67.02
2023-01-13T13:21:04.646Z,66.13
2023-01-13T13:23:50.121Z,67.38
2023-01-13T13:26:24.709Z,66.88
2023-01-13T13:29:29.106Z,65.74
2023-01-13T13:32:10.959Z,65.16
2023-01-13T13:34:56.612Z,65.51
2023-01-13T13:37:31.175Z,66.74
2023-01-13T13:40:17.101Z,65.94
2023-01-13T13:43:13.236Z,66.49
2023-01-13T13:46:09.182Z,65.00
2023-01-13T13:48:37.262Z,65.86
2023-01-13T13:51:37.881Z,66.16
2023-01-13T13:54:10.426Z,66.54
2023-01-13T13:56:42.092Z,65.71
2023-01-13T13:59:12.148Z,64.70
2023-01-13T14:01:43.014Z,64.34
2023-01-13T14:04:20.859Z,64.58
2023-01-13T14:07:04.849Z,63.77
2023-01-13T14:09:43.997Z,64.53
2023-01-13T14:12:23.571Z,64.76
2023-01-13T14:14:51.600Z,65.12
2023-01-13T14:17:22.377Z,65.13
2023-01-13T14:19:56.498Z,66.43
2023-01-13T14:22:23.842Z,66.59
2023-01-13T14:24:55.602Z,67.28
2023-01-13T14:27:24.737Z,66.49
2023-01-13T14:29:54.402Z,67.14
2023-01-13T14:32:31.712Z,68.85
2023-01-13T14:34:59.103Z,69.62
2023-01-13T14:37:34.914Z,70.42
2023-01-13T14:40:02.395Z,70.78
2023-01-13T14:42:31.456Z,71.73
2023-01-13T14:44:58.671Z,70.45
2023-01-13T14:47:28.374Z,72.01
2023-01-13T14:50:03.762Z,73.25
2023-01-13T14:52:37.555Z,73.58
2023-01-13T14:55:04.517Z,72.60
2023-01-13T14:57:33.422Z,72.88
2023-01-13T15:00:15.839Z,74.17
2023-01-13T15:02:58.035Z,73.71
2023-01-13T15:05:25.288Z,73.99
2023-01-13T15:08:11.532Z,73.99
2023-01-13T15:10:48.468Z,74.93
2023-01-13T15:13:33.391Z,75.10
2023-01-13T15:16:03.445Z,76.86
2023-01-13T15:18:30.955Z,76.29
2023-01-13T15:20:58.017Z,76.10
2023-01-13T15:23:25.087Z,77.98
2023-01-13T15:25:52.288Z,77.93
2023-01-13T15:28:25.501Z,78.43
2023-01-13T15:30:54.520Z,78.94
2023-01-13T15:33:22.624Z,79.99
2023-01-13T15:35:52.809Z,80.30
2023-01-13T15:38:22.256Z,80.69
2023-01-13T15:40:51.085Z,80.65
2023-01-13T15:43:39.074Z,81.31
2023-01-13T15:46:33.157Z,82.02
2023-01-13T15:49:09.809Z,82.92
2023-01-13T15:51:38.807Z,83.39
2023-01-13T15:54:07.651Z,84.10
2023-01-13T15:56:36.752Z,84.65
2023-01-13T15:59:05.501Z,85.30
2023-01-13T16:01:32.691Z,85.27
2023-01-13T16:03:59.877Z,85.96
2023-01-13T16:06:35.960Z,85.41
2023-01-13T16:09:04.429Z,86.15
2023-01-13T16:11:31.814Z,85.41
2023-01-13T16:13:59.625Z,86.29
2023-01-13T16:16:28.333Z,87.15
2023-01-13T16:18:56.010Z,87.15
2023-01-13T16:21:24.213Z,86.40
2023-01-13T16:23:51.612Z,86.83
2023-01-13T16:26:22.017Z,87.65
2023-01-13T16:28:50.512Z,88.14
2023-01-13T16:31:31.783Z,88.34
2023-01-13T16:34:00.460Z,89.06
2023-01-13T16:36:30.215Z,88.65
2023-01-13T16:38:57.552Z,88.95
2023-01-13T16:41:24.983Z,88.54
2023-01-13T16:43:52.797Z,89.80
2023-01-13T16:46:23.245Z,90.13
2023-01-13T16:48:53.016Z,90.06
2023-01-13T16:51:21.690Z,90.55
2023-01-13T16:53:49.220Z,91.26
2023-01-13T16:56:23.599Z,91.73
2023-01-13T16:58:52.311Z,92.48
2023-01-13T17:01:31.299Z,91.94
2023-01-13T17:03:59.111Z,91.19
2023-01-13T17:06:34.144Z,91.16
2023-01-13T17:09:14.570Z,90.49
2023-01-13T17:11:41.658Z,91.43
2023-01-13T17:14:19.157Z,92.00
2023-01-13T17:16:47.578Z,92.66
2023-01-13T17:19:14.860Z,92.26
2023-01-13T17:21:42.339Z,91.73
2023-01-13T17:24:10.694Z,92.54
2023-01-13T17:26:49.216Z,92.56
2023-01-13T17:29:20.620Z,92.62
2023-01-13T17:31:48.964Z,93.04
2023-01-13T17:34:16.175Z,92.68
2023-01-13T17:36:43.491Z,92.67
2023-01-13T17:39:19.076Z,92.52
2023-01-13T17:41:46.364Z,92.51
2023-01-13T17:44:18.027Z,93.15
2023-01-13T17:46:45.789Z,93.55
2023-01-13T17:49:14.192Z,94.58
2023-01-13T17:51:41.334Z,94.73
2023-01-13T17:54:12.294Z,95.55
2023-01-13T17:56:41.147Z,95.87
2023-01-13T17:59:10.606Z,94.93
2023-01-13T18:01:38.435Z,94.92
2023-01-13T18:04:06.920Z,95.07
2023-01-13T18:06:34.060Z,95.94
2023-01-13T18:09:01.390Z,95.05
2023-01-13T18:11:28.574Z,94.98
2023-01-13T18:14:00.122Z,97.65
2023-01-13T18:16:30.154Z,98.38
2023-01-13T18:19:18.432Z,97.23
2023-01-13T18:22:05.423Z,97.40
2023-01-13T18:24:51.856Z,96.26
2023-01-13T18:27:23.737Z,96.11
2023-01-13T18:29:55.732Z,95.86
2023-01-13T18:32:26.333Z,96.81
2023-01-13T18:35:04.748Z,96.61
2023-01-13T18:37:32.910Z,95.78
2023-01-13T18:39:59.972Z,96.63
2023-01-13T18:42:45.354Z,96.64
2023-01-13T18:45:12.420Z,96.50
2023-01-13T18:47:42.114Z,97.09
2023-01-13T18:50:09.839Z,97.21
2023-01-13T18:52:36.941Z,97.34
2023-01-13T18:55:04.235Z,97.31
2023-01-13T18:57:31.464Z,97.60
2023-01-13T18:59:58.553Z,98.20
2023-01-13T19:02:27.665Z,98.79
2023-01-13T19:04:55.022Z,100.00
2023-01-13T19:07:24.219Z,100.00
2023-01-13T19:09:51.409Z,100.00
2023-01-13T19:12:26.193Z,100.00
2023-01-13T19:14:57.606Z,100.00
2023-01-13T19:17:26.319Z,100.00
2023-01-13T19:19:55.567Z,100.00
2023-01-13T19:22:27.257Z,100.00
2023-01-13T19:24:54.542Z,99.93
2023-01-13T19:27:22.339Z,99.42
2023-01-13T19:29:52.330Z,99.59
2023-01-13T19:32:23.213Z,99.83
2023-01-13T19:34:51.157Z,99.52
2023-01-13T19:37:19.400Z,99.27
2023-01-13T19:39:46.809Z,99.50
2023-01-13T19:42:32.792Z,99.23
2023-01-13T19:45:18.683Z,100.00
2023-01-13T19:47:45.977Z,99.75
2023-01-13T19:50:14.224Z,99.49
2023-01-13T19:52:44.150Z,99.76
2023-01-13T19:55:12.352Z,99.49
2023-01-13T19:57:40.496Z,99.85
2023-01-13T20:00:08.761Z,100.00
2023-01-13T20:02:47.759Z,99.93
2023-01-13T20:05:25.624Z,100.00
2023-01-13T20:07:53.118Z,100.00
2023-01-13T20:10:22.427Z,100.00
2023-01-13T20:12:49.528Z,99.62
2023-01-13T20:15:16.730Z,99.60
2023-01-13T20:17:43.903Z,99.34
2023-01-13T20:20:11.803Z,98.74
2023-01-13T20:22:39.829Z,98.29
2023-01-13T20:25:08.714Z,98.95
2023-01-13T20:27:36.534Z,99.15
2023-01-13T20:30:05.003Z,98.36
2023-01-13T20:32:32.068Z,98.85
2023-01-13T20:34:59.139Z,99.44
2023-01-13T20:37:26.485Z,100.00
2023-01-13T20:39:54.582Z,99.72
2023-01-13T20:42:30.549Z,99.38
2023-01-13T20:45:01.129Z,99.74
2023-01-13T20:47:29.586Z,99.71
2023-01-13T20:49:56.974Z,99.59
2023-01-13T20:52:24.659Z,100.00
2023-01-13T20:54:51.902Z,100.00
2023-01-13T20:57:18.980Z,100.00
2023-01-13T20:59:46.218Z,100.00
2023-01-13T21:02:15.175Z,100.00
2023-01-13T21:04:42.860Z,100.00
2023-01-13T21:07:10.285Z,100.00
2023-01-13T21:09:37.773Z,100.00
2023-01-13T21:12:24.237Z,100.00
2023-01-13T21:15:09.605Z,100.00
2023-01-13T21:17:55.558Z,100.00
2023-01-13T21:20:22.797Z,100.00
2023-01-13T21:22:49.961Z,100.00
2023-01-13T21:25:18.559Z,100.00
2023-01-13T21:27:45.986Z,100.00
2023-01-13T21:30:18.015Z,100.00
2023-01-13T21:32:45.586Z,100.00
2023-01-13T21:35:14.129Z,100.00
2023-01-13T21:37:42.911Z,100.00
2023-01-13T21:40:13.043Z,100.00
2023-01-13T21:42:58.737Z,100.00
2023-01-13T21:45:44.267Z,100.00
2023-01-13T21:48:11.439Z,100.00
2023-01-13T21:50:38.999Z,100.00
2023-01-13T21:53:07.817Z,100.00
2023-01-13T21:55:36.557Z,100.00
2023-01-13T21:58:12.467Z,100.00
2023-01-13T22:00:41.919Z,100.00
2023-01-13T22:03:10.483Z,100.00
2023-01-13T22:05:38.555Z,100.00
2023-01-13T22:08:06.725Z,100.00
2023-01-13T22:10:34.302Z,100.00
2023-01-13T22:13:22.303Z,100.00
2023-01-13T22:15:49.534Z,100.00
2023-01-13T22:18:18.146Z,100.00
2023-01-13T22:20:45.734Z,100.00
2023-01-13T22:23:12.879Z,100.00
2023-01-13T22:25:39.999Z,100.00
2023-01-13T22:28:09.069Z,100.00
2023-01-13T22:30:36.460Z,100.00
2023-01-13T22:33:03.754Z,100.00
2023-01-13T22:35:30.869Z,100.00
2023-01-13T22:37:58.556Z,100.00
2023-01-13T22:40:25.934Z,100.00
2023-01-13T22:42:53.100Z,100.00
2023-01-13T22:45:20.232Z,100.00
2023-01-13T22:47:47.933Z,100.00
2023-01-13T22:50:17.483Z,100.00
2023-01-13T22:52:44.546Z,100.00
2023-01-13T22:55:11.636Z,100.00
2023-01-13T22:57:47.217Z,100.00
2023-01-13T23:00:18.761Z,100.00
2023-01-13T23:02:46.343Z,100.00
2023-01-13T23:05:13.905Z,100.00
2023-01-13T23:07:41.237Z,100.00
2023-01-13T23:10:09.231Z,100.00
2023-01-13T23:12:36.590Z,100.00
2023-01-13T23:15:04.245Z,100.00
2023-01-13T23:17:31.348Z,100.00
2023-01-13T23:19:58.560Z,100.00
2023-01-13T23:22:25.716Z,100.00
2023-01-13T23:24:52.808Z,100.00
2023-01-13T23:27:19.898Z,100.00
2023-01-13T23:29:46.987Z,100.00
2023-01-13T23:32:14.071Z,100.00
2023-01-13T23:34:41.154Z,100.00
2023-01-13T23:37:08.235Z,100.00
2023-01-13T23:39:35.339Z,100.00
2023-01-13T23:42:02.479Z,100.00
2023-01-13T23:44:29.608Z,100.00
2023-01-13T23:46:56.757Z,100.00
2023-01-13T23:49:24.093Z,100.00
2023-01-13T23:51:51.941Z,100.00
2023-01-13T23:54:19.168Z,100.00
2023-01-13T23:56:46.326Z,100.00
2023-01-13T23:59:13.435Z,100.00
